createdAt,value
2023-09-08T00:00:28.425Z,5.63
2023-09-08T00:02:55.558Z,5.20
2023-09-08T00:05:22.680Z,5.40
2023-09-08T00:07:50.577Z,5.53
2023-09-08T00:10:17.836Z,5.50
2023-09-08T00:12:44.969Z,5.80
2023-09-08T00:15:12.742Z,6.03
2023-09-08T00:17:41.249Z,6.13
2023-09-08T00:20:09.190Z,5.30
2023-09-08T00:22:36.315Z,5.50
2023-09-08T00:25:03.507Z,5.40
2023-09-08T00:27:30.764Z,5.73
2023-09-08T00:29:57.858Z,4.67
2023-09-08T00:32:25.024Z,5.70
2023-09-08T00:34:53.552Z,5.67
2023-09-08T00:37:20.651Z,5.60
2023-09-08T00:39:48.224Z,5.80
2023-09-08T00:42:15.337Z,5.40
2023-09-08T00:44:42.400Z,5.27
2023-09-08T00:47:09.539Z,5.80
2023-09-08T00:49:36.774Z,5.73
2023-09-08T00:52:06.366Z,5.67
2023-09-08T00:54:33.458Z,5.60
2023-09-08T00:57:03.147Z,5.80
2023-09-08T00:59:32.300Z,5.77
2023-09-08T01:01:59.791Z,5.87
2023-09-08T01:04:27.023Z,6.13
2023-09-08T01:06:55.383Z,6.33
2023-09-08T01:09:25.373Z,6.30
2023-09-08T01:11:52.995Z,5.70
2023-09-08T01:14:20.289Z,5.77
2023-09-08T01:16:47.540Z,5.77
2023-09-08T01:19:17.140Z,5.27
2023-09-08T01:22:16.670Z,5.97
2023-09-08T01:27:38.306Z,5.70
2023-09-08T01:30:07.613Z,5.97
2023-09-08T01:32:36.118Z,5.60
2023-09-08T01:35:04.213Z,6.30
2023-09-08T01:37:31.304Z,5.77
2023-09-08T01:39:58.408Z,6.33
2023-09-08T01:42:25.890Z,5.93
2023-09-08T01:44:54.456Z,6.03
2023-09-08T01:47:21.499Z,5.40
2023-09-08T01:49:48.621Z,5.60
2023-09-08T01:52:15.717Z,6.40
2023-09-08T01:54:43.047Z,5.93
2023-09-08T01:57:10.332Z,5.93
2023-09-08T01:59:37.404Z,6.00
2023-09-08T02:02:06.000Z,5.70
2023-09-08T02:04:33.268Z,5.67
2023-09-08T02:07:00.398Z,6.10
2023-09-08T02:09:32.566Z,5.57
2023-09-08T02:11:59.922Z,5.10
2023-09-08T02:14:27.137Z,5.47
2023-09-08T02:16:54.356Z,5.80
2023-09-08T02:19:23.305Z,5.20
2023-09-08T02:21:50.541Z,5.57
2023-09-08T02:24:17.687Z,6.47
2023-09-08T02:26:44.783Z,6.93
2023-09-08T02:29:11.894Z,6.70
2023-09-08T02:31:38.971Z,5.80
2023-09-08T02:34:06.032Z,6.10
2023-09-08T02:36:34.550Z,5.83
2023-09-08T02:39:01.687Z,6.03
2023-09-08T02:41:28.782Z,5.93
2023-09-08T02:43:56.788Z,6.03
2023-09-08T02:46:23.956Z,5.63
2023-09-08T02:48:51.962Z,5.03
2023-09-08T02:51:22.704Z,5.20
2023-09-08T02:53:51.178Z,5.10
2023-09-08T02:56:19.464Z,5.67
2023-09-08T02:58:46.650Z,5.40
2023-09-08T03:01:15.328Z,5.10
2023-09-08T03:03:43.209Z,5.67
2023-09-08T03:06:10.388Z,5.57
2023-09-08T03:08:38.065Z,5.17
2023-09-08T03:11:09.177Z,5.50
2023-09-08T03:13:36.397Z,5.87
2023-09-08T03:16:04.903Z,5.87
2023-09-08T03:18:32.891Z,5.90
2023-09-08T03:21:00.719Z,5.80
2023-09-08T03:23:27.797Z,6.43
2023-09-08T03:25:54.880Z,6.13
2023-09-08T03:28:23.321Z,5.90
2023-09-08T03:30:50.464Z,6.10
2023-09-08T03:33:17.665Z,6.10
2023-09-08T03:35:44.928Z,6.60
2023-09-08T03:38:11.971Z,6.27
2023-09-08T03:40:39.026Z,5.83
2023-09-08T03:43:06.193Z,6.03
2023-09-08T03:45:34.879Z,5.70
2023-09-08T03:48:02.123Z,5.57
2023-09-08T03:50:31.079Z,6.10
2023-09-08T03:52:58.208Z,6.10
2023-09-08T03:55:25.533Z,6.10
2023-09-08T03:57:52.621Z,6.60
2023-09-08T04:00:20.532Z,6.47
2023-09-08T04:02:49.189Z,6.30
2023-09-08T04:05:17.087Z,6.97
2023-09-08T04:07:44.288Z,5.97
2023-09-08T04:10:11.531Z,6.07
2023-09-08T04:12:39.720Z,6.27
2023-09-08T04:15:07.760Z,5.90
2023-09-08T04:17:34.919Z,5.53
2023-09-08T04:20:04.055Z,5.50
2023-09-08T04:22:31.234Z,6.00
2023-09-08T04:24:58.407Z,6.03
2023-09-08T04:27:25.584Z,6.00
2023-09-08T04:29:52.709Z,6.47
2023-09-08T04:32:20.686Z,5.97
2023-09-08T04:34:47.757Z,6.03
2023-09-08T04:37:16.186Z,6.27
2023-09-08T04:39:43.399Z,6.43
2023-09-08T04:42:10.540Z,6.70
2023-09-08T04:44:37.611Z,6.20
2023-09-08T04:47:06.019Z,5.97
2023-09-08T04:49:33.193Z,5.90
2023-09-08T04:52:00.327Z,5.97
2023-09-08T04:54:29.207Z,6.20
2023-09-08T04:57:04.050Z,6.70
2023-09-08T04:59:40.616Z,6.20
2023-09-08T05:02:07.849Z,6.60
2023-09-08T05:04:34.990Z,6.37
2023-09-08T05:07:02.080Z,6.93
2023-09-08T05:09:30.463Z,6.03
2023-09-08T05:11:57.547Z,6.70
2023-09-08T05:14:24.674Z,6.03
2023-09-08T05:16:51.812Z,6.03
2023-09-08T05:19:18.908Z,6.30
2023-09-08T05:21:46.172Z,6.00
2023-09-08T05:24:13.429Z,6.50
2023-09-08T05:26:42.972Z,6.50
2023-09-08T05:29:10.183Z,6.50
2023-09-08T05:31:37.609Z,7.10
2023-09-08T05:34:04.773Z,6.53
2023-09-08T05:36:31.897Z,6.00
2023-09-08T05:38:59.342Z,6.50
2023-09-08T05:41:26.411Z,6.30
2023-09-08T05:43:54.860Z,6.47
2023-09-08T05:46:22.094Z,7.70
2023-09-08T05:48:49.173Z,7.97
2023-09-08T05:51:16.468Z,7.50
2023-09-08T05:53:43.589Z,8.00
2023-09-08T05:56:11.399Z,9.07
2023-09-08T05:58:38.643Z,8.13
2023-09-08T06:01:09.676Z,8.53
2023-09-08T06:03:37.083Z,8.30
2023-09-08T06:06:10.427Z,8.00
2023-09-08T06:08:37.907Z,8.33
2023-09-08T06:11:06.743Z,8.83
2023-09-08T06:13:35.773Z,9.90
2023-09-08T06:16:02.878Z,9.87
2023-09-08T06:18:31.428Z,9.10
2023-09-08T06:20:58.900Z,9.83
2023-09-08T06:23:26.101Z,9.90
2023-09-08T06:25:57.546Z,9.10
2023-09-08T06:28:26.415Z,10.13
2023-09-08T06:30:55.811Z,9.73
2023-09-08T06:33:23.207Z,9.93
2023-09-08T06:36:17.872Z,10.07
2023-09-08T06:38:45.084Z,9.93
2023-09-08T06:41:12.612Z,10.10
2023-09-08T06:43:39.900Z,9.87
2023-09-08T06:46:07.035Z,8.87
2023-09-08T06:48:37.433Z,9.73
2023-09-08T06:51:05.849Z,8.87
2023-09-08T06:53:37.627Z,9.13
2023-09-08T06:56:07.932Z,8.63
2023-09-08T06:58:35.276Z,8.77
2023-09-08T07:01:02.719Z,9.17
2023-09-08T07:03:30.557Z,9.47
2023-09-08T07:05:57.810Z,9.37
2023-09-08T07:08:26.354Z,10.73
2023-09-08T07:10:54.897Z,10.10
2023-09-08T07:13:22.186Z,10.90
2023-09-08T07:15:49.408Z,10.87
2023-09-08T07:18:16.507Z,11.23
2023-09-08T07:20:47.746Z,11.00
2023-09-08T07:23:14.821Z,13.13
2023-09-08T07:25:45.786Z,11.43
2023-09-08T07:28:14.380Z,12.13
2023-09-08T07:30:41.784Z,12.50
2023-09-08T07:33:09.032Z,11.97
2023-09-08T07:35:39.028Z,11.57
2023-09-08T07:38:06.331Z,10.50
2023-09-08T07:40:33.890Z,18.10
2023-09-08T07:43:01.022Z,17.83
2023-09-08T07:45:29.517Z,16.67
2023-09-08T07:47:56.732Z,17.23
2023-09-08T07:50:26.279Z,16.47
2023-09-08T07:52:54.997Z,18.73
2023-09-08T07:55:22.826Z,18.97
2023-09-08T07:57:51.502Z,21.17
2023-09-08T08:00:19.139Z,21.80
2023-09-08T08:02:51.024Z,20.70
2023-09-08T08:05:18.750Z,20.40
2023-09-08T08:07:45.887Z,20.20
2023-09-08T08:10:14.094Z,22.63
2023-09-08T08:12:42.162Z,20.07
2023-09-08T08:15:10.681Z,21.07
2023-09-08T08:17:38.321Z,18.93
2023-09-08T08:20:09.017Z,20.57
2023-09-08T08:22:36.724Z,19.20
2023-09-08T08:25:05.475Z,19.43
2023-09-08T08:27:32.887Z,19.90
2023-09-08T08:30:00.094Z,19.17
2023-09-08T08:32:27.324Z,18.10
2023-09-08T08:34:55.334Z,17.87
2023-09-08T08:37:23.960Z,16.93
2023-09-08T08:39:51.071Z,17.17
2023-09-08T08:42:18.490Z,16.80
2023-09-08T08:44:45.760Z,16.48
2023-09-08T08:47:17.658Z,15.80
2023-09-08T08:49:45.398Z,14.95
2023-09-08T08:52:16.362Z,16.58
2023-09-08T08:54:45.975Z,14.90
2023-09-08T08:57:13.764Z,13.93
2023-09-08T08:59:42.939Z,11.27
2023-09-08T09:02:12.693Z,10.77
2023-09-08T09:04:40.262Z,11.18
2023-09-08T09:07:08.519Z,10.85
2023-09-08T09:09:35.874Z,11.40
2023-09-08T09:12:04.851Z,11.80
2023-09-08T09:14:34.110Z,12.40
2023-09-08T09:17:01.523Z,11.70
2023-09-08T09:19:28.824Z,11.40
2023-09-08T09:21:56.704Z,12.02
2023-09-08T09:24:32.127Z,10.27
2023-09-08T09:26:59.737Z,10.23
2023-09-08T09:29:29.001Z,10.20
2023-09-08T09:31:57.548Z,10.02
2023-09-08T09:34:25.000Z,9.82
2023-09-08T09:36:52.907Z,10.13
2023-09-08T09:39:21.054Z,9.93
2023-09-08T09:41:48.976Z,9.95
2023-09-08T09:44:16.811Z,10.18
2023-09-08T09:46:46.712Z,9.57
2023-09-08T09:49:14.102Z,10.13
2023-09-08T09:51:43.343Z,9.18
2023-09-08T09:54:10.506Z,8.95
2023-09-08T09:56:43.156Z,9.48
2023-09-08T09:59:14.933Z,9.55
2023-09-08T10:01:43.380Z,9.82
2023-09-08T10:04:21.183Z,9.70
2023-09-08T10:06:48.545Z,9.77
2023-09-08T10:09:16.293Z,9.20
2023-09-08T10:11:46.257Z,9.68
2023-09-08T10:14:15.160Z,8.68
2023-09-08T10:16:45.354Z,9.18
2023-09-08T10:19:14.194Z,8.98
2023-09-08T10:21:42.980Z,8.73
2023-09-08T10:24:22.745Z,8.77
2023-09-08T10:26:57.192Z,8.02
2023-09-08T10:29:32.761Z,8.32
2023-09-08T10:32:03.159Z,8.35
2023-09-08T10:34:34.094Z,8.23
2023-09-08T10:37:04.515Z,8.25
2023-09-08T10:39:33.616Z,8.15
2023-09-08T10:42:23.165Z,8.68
2023-09-08T10:45:01.161Z,7.90
2023-09-08T10:47:34.554Z,8.88
2023-09-08T10:50:03.261Z,8.88
2023-09-08T10:52:30.431Z,9.13
2023-09-08T10:54:58.963Z,16.67
2023-09-08T10:57:26.823Z,9.18
2023-09-08T10:59:55.609Z,9.25
2023-09-08T11:02:40.289Z,7.75
2023-09-08T11:05:11.622Z,12.55
2023-09-08T11:07:39.425Z,8.63
2023-09-08T11:10:08.422Z,7.85
2023-09-08T11:12:36.273Z,8.20
2023-09-08T11:15:05.074Z,8.05
2023-09-08T11:17:32.538Z,8.13
2023-09-08T11:19:59.814Z,7.32
2023-09-08T11:22:28.540Z,8.07
2023-09-08T11:24:57.932Z,8.95
2023-09-08T11:27:25.405Z,9.00
2023-09-08T11:29:52.695Z,8.13
2023-09-08T11:32:19.870Z,8.75
2023-09-08T11:34:46.999Z,8.80
2023-09-08T11:37:15.586Z,8.52
2023-09-08T11:39:44.659Z,8.52
2023-09-08T11:42:14.528Z,7.97
2023-09-08T11:44:43.158Z,8.30
2023-09-08T11:47:11.389Z,7.35
2023-09-08T11:49:39.559Z,7.28
2023-09-08T11:52:07.280Z,9.30
2023-09-08T11:54:36.475Z,7.53
2023-09-08T11:57:06.545Z,8.27
2023-09-08T11:59:34.937Z,7.43
2023-09-08T12:02:02.324Z,7.85
2023-09-08T12:04:29.472Z,6.88
2023-09-08T12:06:56.795Z,6.43
2023-09-08T12:09:24.281Z,6.93
2023-09-08T12:11:51.529Z,8.00
2023-09-08T12:14:20.350Z,7.10
2023-09-08T12:16:47.923Z,7.35
2023-09-08T12:19:31.759Z,6.55
2023-09-08T12:22:01.808Z,7.03
2023-09-08T12:24:48.058Z,7.85
2023-09-08T12:27:15.813Z,7.40
2023-09-08T12:29:52.608Z,7.32
2023-09-08T12:32:19.841Z,6.43
2023-09-08T12:34:47.075Z,6.13
2023-09-08T12:37:14.194Z,6.65
2023-09-08T12:39:41.400Z,6.32
2023-09-08T12:42:08.476Z,6.53
2023-09-08T12:44:35.626Z,5.68
2023-09-08T12:47:04.576Z,5.85
2023-09-08T12:49:31.609Z,6.20
2023-09-08T12:51:58.580Z,6.65
2023-09-08T12:54:26.155Z,6.70
2023-09-08T12:56:53.067Z,6.40
2023-09-08T12:59:20.000Z,6.85
2023-09-08T13:01:47.136Z,6.38
2023-09-08T13:04:15.413Z,6.47
2023-09-08T13:06:42.725Z,6.47
2023-09-08T13:09:09.832Z,6.88
2023-09-08T13:11:36.831Z,6.57
2023-09-08T13:14:03.889Z,6.40
2023-09-08T13:16:31.055Z,7.40
2023-09-08T13:18:57.989Z,7.30
2023-09-08T13:21:27.979Z,7.25
2023-09-08T13:23:55.076Z,7.13
2023-09-08T13:26:22.022Z,6.35
2023-09-08T13:28:48.926Z,6.97
2023-09-08T13:31:16.074Z,6.90
2023-09-08T13:33:43.004Z,6.93
2023-09-08T13:36:09.962Z,7.28
2023-09-08T13:38:39.216Z,7.05
2023-09-08T13:41:06.356Z,7.10
2023-09-08T13:43:33.525Z,7.22
2023-09-08T13:46:00.621Z,6.93
2023-09-08T13:48:28.294Z,7.40
2023-09-08T13:50:56.173Z,7.20
2023-09-08T13:53:41.908Z,6.88
2023-09-08T13:56:15.160Z,6.65
2023-09-08T13:58:49.596Z,6.88
2023-09-08T14:01:20.084Z,7.05
2023-09-08T14:06:21.341Z,7.18
2023-09-08T14:11:35.032Z,6.30
2023-09-08T14:14:11.248Z,6.95
2023-09-08T14:16:38.203Z,7.30
2023-09-08T14:19:05.272Z,6.88
2023-09-08T14:21:32.388Z,7.30
2023-09-08T14:23:59.385Z,6.90
2023-09-08T14:26:27.728Z,6.85
2023-09-08T14:28:54.891Z,6.90
2023-09-08T14:31:21.941Z,7.22
2023-09-08T14:33:49.123Z,7.10
2023-09-08T14:36:20.501Z,7.47
2023-09-08T14:38:47.582Z,7.32
2023-09-08T14:41:14.710Z,7.38
2023-09-08T14:43:43.481Z,7.38
2023-09-08T14:46:10.382Z,7.30
2023-09-08T14:48:37.392Z,6.72
2023-09-08T14:51:04.577Z,6.75
2023-09-08T14:53:31.559Z,7.05
2023-09-08T14:55:58.522Z,6.72
2023-09-08T14:58:25.836Z,7.80
2023-09-08T15:00:54.174Z,7.07
2023-09-08T15:03:21.267Z,6.70
2023-09-08T15:05:48.490Z,6.80
2023-09-08T15:08:15.411Z,6.10
2023-09-08T15:10:42.366Z,7.03
2023-09-08T15:13:09.793Z,6.97
2023-09-08T15:15:36.726Z,6.55
2023-09-08T15:18:05.554Z,6.95
2023-09-08T15:20:32.694Z,7.20
2023-09-08T15:22:59.562Z,6.65
2023-09-08T15:25:26.448Z,7.32
2023-09-08T15:27:53.513Z,6.40
2023-09-08T15:30:20.530Z,7.20
2023-09-08T15:32:47.429Z,7.18
2023-09-08T15:35:16.080Z,7.00
2023-09-08T15:37:42.992Z,6.88
2023-09-08T15:40:11.054Z,7.70
2023-09-08T15:42:38.128Z,7.40
2023-09-08T15:45:05.836Z,6.88
2023-09-08T15:47:32.819Z,7.22
2023-09-08T15:50:00.004Z,7.68
2023-09-08T15:52:28.314Z,7.20
2023-09-08T15:54:55.227Z,7.47
2023-09-08T15:57:22.370Z,7.15
2023-09-08T15:59:49.263Z,6.75
2023-09-08T16:02:16.255Z,6.97
2023-09-08T16:04:43.470Z,6.90
2023-09-08T16:07:10.448Z,7.10
2023-09-08T16:09:39.003Z,7.25
2023-09-08T16:12:06.452Z,6.90
2023-09-08T16:14:34.103Z,6.68
2023-09-08T16:17:00.982Z,7.13
2023-09-08T16:19:28.086Z,6.35
2023-09-08T16:21:54.966Z,7.13
2023-09-08T16:24:21.873Z,7.60
2023-09-08T16:26:50.492Z,7.50
2023-09-08T16:29:17.650Z,6.90
2023-09-08T16:31:44.606Z,7.28
2023-09-08T16:34:11.658Z,8.25
2023-09-08T16:36:38.580Z,7.28
2023-09-08T16:39:06.105Z,7.38
2023-09-08T16:41:33.135Z,7.53
2023-09-08T16:44:01.346Z,8.02
2023-09-08T16:46:28.231Z,7.70
2023-09-08T16:48:55.316Z,7.25
2023-09-08T16:51:22.275Z,7.07
2023-09-08T16:53:49.180Z,7.45
2023-09-08T16:56:16.496Z,7.65
2023-09-08T16:58:43.594Z,8.25
2023-09-08T17:01:12.066Z,7.07
2023-09-08T17:03:39.482Z,7.60
2023-09-08T17:06:06.929Z,8.05
2023-09-08T17:08:33.991Z,7.70
2023-09-08T17:11:05.826Z,7.43
2023-09-08T17:13:33.988Z,7.60
2023-09-08T17:16:01.647Z,7.93
2023-09-08T17:18:30.344Z,7.13
2023-09-08T17:20:57.500Z,7.90
2023-09-08T17:23:24.756Z,7.78
2023-09-08T17:25:51.930Z,8.18
2023-09-08T17:28:19.056Z,8.90
2023-09-08T17:30:47.423Z,10.50
2023-09-08T17:33:14.560Z,9.25
2023-09-08T17:35:43.075Z,8.20
2023-09-08T17:38:10.202Z,8.88
2023-09-08T17:40:37.307Z,8.43
2023-09-08T17:43:04.776Z,8.25
2023-09-08T17:45:31.937Z,8.95
2023-09-08T17:47:59.193Z,8.32
2023-09-08T17:50:26.323Z,8.43
2023-09-08T17:52:54.736Z,8.82
2023-09-08T17:55:21.878Z,8.27
2023-09-08T17:57:49.674Z,7.88
2023-09-08T18:00:17.561Z,8.88
2023-09-08T18:02:45.115Z,8.38
2023-09-08T18:05:12.412Z,8.45
2023-09-08T18:07:39.489Z,8.85
2023-09-08T18:10:09.093Z,8.60
2023-09-08T18:12:36.154Z,8.27
2023-09-08T18:15:03.359Z,8.67
2023-09-08T18:17:30.404Z,9.10
2023-09-08T18:19:57.466Z,9.10
2023-09-08T18:22:24.938Z,9.32
2023-09-08T18:24:51.988Z,8.50
2023-09-08T18:27:20.760Z,8.48
2023-09-08T18:29:48.946Z,8.93
2023-09-08T18:32:16.203Z,8.45
2023-09-08T18:34:43.608Z,8.88
2023-09-08T18:37:10.766Z,8.10
2023-09-08T18:39:40.499Z,8.43
2023-09-08T18:42:07.647Z,8.32
2023-09-08T18:44:36.192Z,8.43
2023-09-08T18:47:03.592Z,8.95
2023-09-08T18:49:30.709Z,8.82
2023-09-08T18:51:57.724Z,9.85
2023-09-08T18:54:24.757Z,9.10
2023-09-08T18:56:51.836Z,9.70
2023-09-08T18:59:18.874Z,10.15
2023-09-08T19:01:47.250Z,9.98
2023-09-08T19:04:14.398Z,9.10
2023-09-08T19:06:41.502Z,9.25
2023-09-08T19:09:08.594Z,9.43
2023-09-08T19:11:35.833Z,9.20
2023-09-08T19:14:02.947Z,9.02
2023-09-08T19:16:30.015Z,9.30
2023-09-08T19:18:58.458Z,9.85
2023-09-08T19:21:25.814Z,9.35
2023-09-08T19:23:52.865Z,9.35
2023-09-08T19:26:19.936Z,9.65
2023-09-08T19:28:46.946Z,9.57
2023-09-08T19:31:14.079Z,9.65
2023-09-08T19:33:41.430Z,9.98
2023-09-08T19:36:10.415Z,9.80
2023-09-08T19:38:37.553Z,9.63
2023-09-08T19:41:05.148Z,10.23
2023-09-08T19:43:32.480Z,10.50
2023-09-08T19:46:04.490Z,10.10
2023-09-08T19:48:32.851Z,10.15
2023-09-08T19:50:59.956Z,10.52
2023-09-08T19:53:28.490Z,10.07
2023-09-08T19:55:55.603Z,10.20
2023-09-08T19:58:22.818Z,9.48
2023-09-08T20:00:50.958Z,10.65
2023-09-08T20:03:18.179Z,9.30
2023-09-08T20:05:45.663Z,9.60
2023-09-08T20:08:13.182Z,9.60
2023-09-08T20:10:41.835Z,10.00
2023-09-08T20:13:09.034Z,9.70
2023-09-08T20:15:36.501Z,9.82
2023-09-08T20:18:03.794Z,9.38
2023-09-08T20:20:30.914Z,10.20
2023-09-08T20:22:58.028Z,10.23
2023-09-08T20:25:25.112Z,10.48
2023-09-08T20:27:53.870Z,10.73
2023-09-08T20:30:21.068Z,10.00
2023-09-08T20:32:48.251Z,9.60
2023-09-08T20:35:15.632Z,9.65
2023-09-08T20:37:42.944Z,10.35
2023-09-08T20:40:10.997Z,9.18
2023-09-08T20:42:38.175Z,10.27
2023-09-08T20:45:07.773Z,11.18
2023-09-08T20:47:34.906Z,10.77
2023-09-08T20:50:02.066Z,10.05
2023-09-08T20:52:29.151Z,10.15
2023-09-08T20:54:56.209Z,10.60
2023-09-08T20:57:23.301Z,10.18
2023-09-08T20:59:50.390Z,10.18
2023-09-08T21:02:18.820Z,10.60
2023-09-08T21:04:45.954Z,10.45
2023-09-08T21:07:13.011Z,11.15
2023-09-08T21:09:40.132Z,10.68
2023-09-08T21:12:08.139Z,10.60
2023-09-08T21:14:35.353Z,9.90
2023-09-08T21:17:02.496Z,9.88
2023-09-08T21:19:31.249Z,10.50
2023-09-08T21:21:58.406Z,9.77
2023-09-08T21:24:25.569Z,10.23
2023-09-08T21:26:52.831Z,10.88
2023-09-08T21:29:19.897Z,10.82
2023-09-08T21:31:46.961Z,9.57
2023-09-08T21:34:14.005Z,10.38
2023-09-08T21:36:42.467Z,9.63
2023-09-08T21:39:09.574Z,11.05
2023-09-08T21:41:36.935Z,10.65
2023-09-08T21:44:04.371Z,10.48
2023-09-08T21:46:31.555Z,10.73
2023-09-08T21:48:58.672Z,9.77
2023-09-08T21:51:25.871Z,8.85
2023-09-08T21:53:54.326Z,8.70
2023-09-08T21:56:21.478Z,8.50
2023-09-08T21:58:48.531Z,8.75
2023-09-08T22:01:15.596Z,8.93
2023-09-08T22:03:43.097Z,9.02
2023-09-08T22:06:10.506Z,9.18
2023-09-08T22:08:37.757Z,9.05
2023-09-08T22:11:06.643Z,9.23
2023-09-08T22:13:37.204Z,9.32
2023-09-08T22:16:05.161Z,8.73
2023-09-08T22:18:32.390Z,9.60
2023-09-08T22:20:59.575Z,9.23
2023-09-08T22:23:26.969Z,9.82
2023-09-08T22:25:54.102Z,11.30
2023-09-08T22:28:22.538Z,10.65
2023-09-08T22:30:49.567Z,10.63
2023-09-08T22:33:16.772Z,10.38
2023-09-08T22:35:43.986Z,11.05
2023-09-08T22:38:11.019Z,11.68
2023-09-08T22:40:38.776Z,11.35
2023-09-08T22:43:05.857Z,10.13
2023-09-08T22:45:34.623Z,11.00
2023-09-08T22:48:01.819Z,11.52
2023-09-08T22:50:28.973Z,11.48
2023-09-08T22:52:56.061Z,9.98
2023-09-08T22:55:25.790Z,10.98
2023-09-08T22:57:53.828Z,10.35
2023-09-08T23:00:21.161Z,11.20
2023-09-08T23:02:49.749Z,11.05
2023-09-08T23:05:16.879Z,10.90
2023-09-08T23:07:44.206Z,10.38
2023-09-08T23:10:11.721Z,9.82
2023-09-08T23:12:38.808Z,10.25
2023-09-08T23:15:07.079Z,11.23
2023-09-08T23:17:34.895Z,11.32
2023-09-08T23:20:03.807Z,10.73
2023-09-08T23:22:30.912Z,11.15
2023-09-08T23:24:58.008Z,10.73
2023-09-08T23:27:25.221Z,10.25
2023-09-08T23:29:52.341Z,10.70
2023-09-08T23:32:19.693Z,10.63
2023-09-08T23:34:46.816Z,10.38
2023-09-08T23:37:15.868Z,10.10
2023-09-08T23:39:43.037Z,10.20
2023-09-08T23:42:10.172Z,10.03
2023-09-08T23:44:37.222Z,10.68
2023-09-08T23:47:05.860Z,10.32
2023-09-08T23:49:33.213Z,10.07
2023-09-08T23:52:00.894Z,9.60
2023-09-08T23:54:29.405Z,9.97
2023-09-08T23:56:57.473Z,10.13
2023-09-08T23:59:24.693Z,10.02
